LSME METAR and TAF | Updated Today

LSME METAR

Emmen Air Base

Observation time: 14 min. ago

LSME 061950Z AUTO 00000KT 9999NDV BKN035 14/14 Q1029 RMK

Need help? Read our tutorial on how to read METARs or read the parsed version below.

Emmen Air Base (LSME) METAR

  • Weather conditions on Thu, 06 Oct 2022 19:50:00 +0000 (14 min. ago):
  • Present conditions: Dry
  • Clouds: Broken sky at 1067 meters
  • Visibility:
  • Wind: Calm
  • Temperature: 14 celsius
  • Dew point: 14 celsius
  • Pressure: 1029 millibars
  • Remarks: None


Useful to know...